Time;durP1;ratioP1;P1;durP2;ratioP2;P2;SDS_P1;SDS_P2;PMS_P1;PMS_P2;Temp;Humidity;BMP_temperature;BMP_pressure;BME280_temperature;BME280_humidity;BME280_pressure;Samples;Min_cycle;Max_cycle;Signal;HPM_P1;HPM_P2
2022/06/19 00:01:17;;;;;;;11.98;2.30;;;14.50;86.40;;;;;;5145875;27;20030;-64
2022/06/19 00:03:54;;;;;;;10.65;1.98;;;14.50;85.60;;;;;;5149527;27;20053;-64
2022/06/19 00:06:20;;;;;;;9.73;1.88;;;14.50;85.70;;;;;;5144333;27;20050;-64
2022/06/19 00:08:48;;;;;;;13.88;2.30;;;14.50;85.70;;;;;;5149652;27;20074;-64
2022/06/19 00:11:16;;;;;;;16.88;2.83;;;14.40;85.80;;;;;;5128725;27;20035;-64
2022/06/19 00:13:42;;;;;;;13.38;2.35;;;14.40;85.80;;;;;;5150336;27;20026;-64
2022/06/19 00:16:08;;;;;;;11.45;2.80;;;14.40;86.20;;;;;;5147739;27;20038;-64
2022/06/19 00:18:35;;;;;;;13.05;2.40;;;14.40;86.50;;;;;;5152100;27;20043;-64
2022/06/19 00:21:01;;;;;;;11.60;2.72;;;14.30;86.80;;;;;;5148310;27;20042;-64
2022/06/19 00:23:27;;;;;;;12.05;2.20;;;14.30;87.00;;;;;;5146105;27;20393;-64
2022/06/19 00:25:52;;;;;;;13.23;2.47;;;14.30;87.00;;;;;;5150946;27;20039;-64
2022/06/19 00:28:18;;;;;;;13.90;2.20;;;14.30;87.10;;;;;;5149405;27;20034;-64
2022/06/19 00:30:44;;;;;;;17.10;2.40;;;14.30;87.40;;;;;;5150782;27;20073;-64
2022/06/19 00:33:09;;;;;;;12.68;2.60;;;14.30;87.20;;;;;;5141647;27;20490;-64
2022/06/19 00:35:35;;;;;;;18.67;3.33;;;14.30;87.30;;;;;;5150417;27;20053;-64
2022/06/19 00:38:00;;;;;;;12.32;2.85;;;14.30;87.40;;;;;;5143249;27;20060;-64
2022/06/19 00:40:28;;;;;;;11.65;2.42;;;14.30;87.20;;;;;;5144229;27;20064;-64
2022/06/19 00:42:54;;;;;;;16.67;2.33;;;14.40;87.30;;;;;;5136815;27;20057;-64
2022/06/19 00:45:27;;;;;;;15.82;2.58;;;14.30;87.00;;;;;;5147345;27;20034;-64
2022/06/19 00:47:52;;;;;;;13.85;3.13;;;14.30;88.00;;;;;;5146013;27;20042;-64
2022/06/19 00:50:25;;;;;;;11.30;2.28;;;14.20;87.70;;;;;;5150174;27;20416;-64
2022/06/19 00:52:51;;;;;;;13.20;2.05;;;14.20;88.40;;;;;;5150257;27;20046;-64
2022/06/19 00:55:22;;;;;;;14.07;2.22;;;14.20;87.80;;;;;;5148551;27;20039;-64
2022/06/19 00:58:06;;;;;;;12.50;2.25;;;14.20;88.30;;;;;;5143054;27;20046;-64
2022/06/19 01:00:33;;;;;;;17.55;3.10;;;14.20;87.90;;;;;;5144796;27;20378;-64
2022/06/19 01:03:04;;;;;;;12.88;2.67;;;14.20;87.70;;;;;;5146183;27;20493;-64
2022/06/19 01:05:33;;;;;;;11.82;2.75;;;14.30;87.90;;;;;;5145175;27;20066;-64
2022/06/19 01:08:00;;;;;;;11.75;2.28;;;14.40;87.70;;;;;;5141969;27;20467;-64
2022/06/19 01:10:26;;;;;;;12.55;3.25;;;14.40;87.70;;;;;;5127310;27;20117;-64
2022/06/19 01:12:52;;;;;;;13.85;2.33;;;14.40;87.40;;;;;;5150093;27;20550;-64
2022/06/19 01:15:22;;;;;;;11.27;1.98;;;14.50;87.20;;;;;;5130481;27;20031;-64
2022/06/19 01:17:52;;;;;;;10.57;2.28;;;14.60;87.20;;;;;;5134830;27;20498;-64
2022/06/19 01:20:18;;;;;;;16.42;2.45;;;14.60;87.00;;;;;;5152596;27;20031;-64
2022/06/19 01:22:51;;;;;;;11.75;2.25;;;14.60;86.70;;;;;;5134628;27;20035;-64
2022/06/19 01:25:19;;;;;;;12.07;2.30;;;14.60;86.20;;;;;;5146470;27;20036;-64
2022/06/19 01:30:36;;;;;;;10.13;2.45;;;14.70;85.80;;;;;;5119402;27;20493;-64
2022/06/19 01:33:05;;;;;;;12.15;2.20;;;14.80;85.40;;;;;;5143425;27;20037;-64
2022/06/19 01:35:35;;;;;;;7.85;1.48;;;14.80;85.20;;;;;;5151836;27;20030;-64
2022/06/19 01:38:05;;;;;;;9.10;1.65;;;14.80;84.90;;;;;;5120728;27;20397;-64
2022/06/19 01:40:34;;;;;;;8.65;1.60;;;14.90;84.10;;;;;;5152123;27;20039;-64
2022/06/19 01:42:59;;;;;;;16.15;2.53;;;14.90;83.20;;;;;;5139984;27;20039;-64
2022/06/19 01:45:25;;;;;;;9.23;1.50;;;14.90;82.40;;;;;;5145932;27;20030;-64
2022/06/19 01:47:51;;;;;;;4.53;1.50;;;14.90;81.50;;;;;;5143415;27;20402;-64
2022/06/19 01:50:21;;;;;;;7.25;1.38;;;14.90;81.00;;;;;;5144997;27;20034;-64
2022/06/19 01:52:50;;;;;;;9.80;1.45;;;14.90;80.30;;;;;;5127985;27;20042;-64
2022/06/19 01:55:18;;;;;;;9.45;1.58;;;14.90;79.80;;;;;;5147188;27;20039;-64
2022/06/19 01:57:49;;;;;;;6.28;1.30;;;14.90;79.50;;;;;;5142427;27;20043;-64
2022/06/19 02:00:20;;;;;;;9.18;2.08;;;14.90;79.50;;;;;;5147472;27;20030;-64
2022/06/19 02:02:47;;;;;;;;;;;14.90;79.10;;;;;;5148086;27;20031;-64
2022/06/19 02:05:13;;;;;;;6.95;1.40;;;14.90;78.00;;;;;;5147412;27;20674;-64
2022/06/19 02:07:39;;;;;;;4.78;1.50;;;14.90;78.80;;;;;;5150325;27;20054;-64
2022/06/19 02:10:05;;;;;;;13.65;2.25;;;14.90;78.30;;;;;;5148656;27;20047;-64
2022/06/19 02:12:32;;;;;;;10.38;1.70;;;14.90;78.00;;;;;;5144366;27;20046;-64
2022/06/19 02:15:01;;;;;;;10.10;1.58;;;14.90;77.70;;;;;;5145983;27;20030;-64
2022/06/19 02:17:42;;;;;;;7.93;1.48;;;14.90;77.70;;;;;;5154839;27;20035;-64
2022/06/19 02:20:09;;;;;;;9.88;1.88;;;14.90;77.70;;;;;;5148884;27;20037;-64
2022/06/19 02:22:34;;;;;;;6.78;1.48;;;14.90;77.90;;;;;;5152474;27;20046;-64
2022/06/19 02:25:01;;;;;;;7.80;1.45;;;14.90;77.80;;;;;;5154316;27;20084;-64
2022/06/19 02:27:30;;;;;;;11.43;1.88;;;14.90;78.00;;;;;;5153980;27;20432;-64
2022/06/19 02:29:56;;;;;;;10.45;2.20;;;14.90;78.20;;;;;;5145856;27;20117;-64
2022/06/19 02:32:34;;;;;;;11.60;1.77;;;14.90;78.30;;;;;;5151762;27;20122;-64
2022/06/19 02:35:00;;;;;;;10.05;1.40;;;14.90;78.40;;;;;;5151191;27;20038;-64
2022/06/19 02:37:31;;;;;;;9.85;2.03;;;14.90;78.50;;;;;;5151805;27;20049;-63
2022/06/19 02:39:59;;;;;;;16.95;3.15;;;14.90;78.50;;;;;;5150693;27;20424;-64
2022/06/19 02:42:45;;;;;;;11.20;2.08;;;14.90;78.90;;;;;;5154463;27;20096;-64
2022/06/19 02:45:32;;;;;;;14.50;2.15;;;14.90;79.60;;;;;;5147432;27;20493;-64
2022/06/19 02:47:59;;;;;;;11.95;1.80;;;14.90;80.00;;;;;;5150992;27;20052;-64
2022/06/19 02:50:33;;;;;;;11.55;2.03;;;14.90;79.70;;;;;;5149462;27;20034;-64
2022/06/19 02:52:59;;;;;;;9.95;2.00;;;14.90;80.00;;;;;;5140812;27;20618;-64
2022/06/19 02:55:24;;;;;;;12.25;2.22;;;15.00;80.30;;;;;;5151912;27;20034;-64
2022/06/19 02:57:51;;;;;;;8.50;1.70;;;15.00;80.80;;;;;;5149123;27;20547;-64
2022/06/19 03:00:21;;;;;;;13.63;2.33;;;15.00;80.90;;;;;;5127125;27;20103;-64
2022/06/19 03:02:50;;;;;;;14.93;2.30;;;15.00;81.20;;;;;;5148160;27;20062;-64
2022/06/19 03:05:22;;;;;;;11.10;2.17;;;15.00;81.30;;;;;;5151830;27;20122;-64
2022/06/19 03:07:48;;;;;;;18.65;2.67;;;15.00;81.90;;;;;;5134442;27;20035;-64
2022/06/19 03:10:14;;;;;;;13.25;2.50;;;15.10;81.70;;;;;;5148414;27;20059;-64
2022/06/19 03:12:39;;;;;;;12.73;2.20;;;15.10;82.00;;;;;;5155382;27;20046;-64
2022/06/19 03:15:06;;;;;;;10.45;1.85;;;15.10;82.40;;;;;;5148473;27;20031;-64
2022/06/19 03:17:31;;;;;;;18.20;2.60;;;15.10;82.80;;;;;;5150529;27;20027;-64
2022/06/19 03:19:57;;;;;;;11.57;1.98;;;15.10;83.30;;;;;;5130249;27;20573;-64
2022/06/19 03:22:22;;;;;;;13.35;2.88;;;15.10;83.30;;;;;;5152702;27;20072;-64
2022/06/19 03:24:48;;;;;;;9.20;1.67;;;15.10;83.50;;;;;;5152047;27;20095;-65
2022/06/19 03:27:14;;;;;;;9.18;2.15;;;15.10;83.70;;;;;;5155966;27;20031;-64
2022/06/19 03:29:40;;;;;;;13.10;2.45;;;15.10;83.50;;;;;;5150442;27;20052;-64
2022/06/19 03:32:10;;;;;;;10.10;2.22;;;15.10;83.40;;;;;;5150134;27;20050;-65
2022/06/19 03:34:36;;;;;;;8.48;2.10;;;15.10;83.30;;;;;;5149206;27;20516;-65
2022/06/19 03:37:02;;;;;;;6.93;2.00;;;15.10;83.30;;;;;;5153560;27;20440;-65
2022/06/19 03:39:27;;;;;;;12.65;2.28;;;15.00;83.30;;;;;;5152908;27;20034;-65
2022/06/19 03:41:53;;;;;;;11.68;2.25;;;14.90;83.50;;;;;;5133798;27;20083;-65
2022/06/19 03:44:19;;;;;;;10.73;2.22;;;15.00;83.50;;;;;;5131445;27;20039;-64
2022/06/19 03:46:44;;;;;;;12.35;2.17;;;15.00;83.70;;;;;;5153222;27;20057;-64
2022/06/19 03:49:10;;;;;;;8.60;2.05;;;14.90;83.80;;;;;;5146351;27;20064;-64
2022/06/19 03:51:36;;;;;;;8.38;1.80;;;14.80;84.10;;;;;;5151980;27;20046;-64
2022/06/19 03:54:02;;;;;;;8.52;1.95;;;14.80;84.20;;;;;;5150843;27;20524;-64
2022/06/19 03:56:31;;;;;;;14.73;2.42;;;14.80;84.40;;;;;;5151190;27;20111;-64
2022/06/19 03:58:57;;;;;;;10.88;1.85;;;14.80;84.50;;;;;;5151281;27;20045;-65
2022/06/19 04:01:27;;;;;;;11.88;2.05;;;14.70;84.80;;;;;;5148915;27;20035;-64
2022/06/19 04:03:54;;;;;;;11.73;1.70;;;14.80;85.00;;;;;;5151682;27;20039;-64
2022/06/19 04:06:22;;;;;;;15.10;2.03;;;14.70;85.20;;;;;;5124659;27;20042;-64
2022/06/19 04:08:48;;;;;;;9.27;2.45;;;14.70;85.60;;;;;;5150894;27;20099;-64
2022/06/19 04:11:16;;;;;;;15.27;2.20;;;14.70;85.70;;;;;;5142616;27;20528;-64
2022/06/19 04:13:42;;;;;;;13.55;2.30;;;14.70;85.80;;;;;;5134065;27;20035;-63
2022/06/19 04:16:10;;;;;;;13.65;2.08;;;14.60;85.80;;;;;;5145429;27;20147;-62
2022/06/19 04:18:36;;;;;;;10.90;2.38;;;14.50;85.60;;;;;;5151213;27;20363;-63
2022/06/19 04:21:03;;;;;;;12.80;2.42;;;14.40;84.90;;;;;;5136767;27;20039;-64
2022/06/19 04:23:29;;;;;;;9.95;1.67;;;14.20;83.60;;;;;;5153066;27;20075;-63
2022/06/19 04:25:54;;;;;;;7.65;1.70;;;14.10;82.30;;;;;;5154186;27;20031;-62
2022/06/19 04:28:24;;;;;;;8.25;1.77;;;13.90;80.80;;;;;;5153622;27;20073;-62
2022/06/19 04:30:53;;;;;;;10.52;1.50;;;13.90;80.60;;;;;;5152321;27;20427;-62
2022/06/19 04:33:20;;;;;;;8.07;1.63;;;13.80;78.00;;;;;;5143552;27;20047;-62
2022/06/19 04:35:47;;;;;;;8.32;1.60;;;13.80;78.10;;;;;;5140121;27;20113;-63
2022/06/19 04:38:13;;;;;;;19.40;1.83;;;13.90;78.10;;;;;;5143753;27;20063;-63
2022/06/19 04:40:39;;;;;;;10.55;1.63;;;13.90;77.30;;;;;;5153787;27;20364;-63
2022/06/19 04:43:05;;;;;;;12.88;2.13;;;14.00;77.20;;;;;;5150059;27;20047;-62
2022/06/19 04:45:32;;;;;;;9.65;1.88;;;14.00;77.50;;;;;;5127724;27;20042;-67
2022/06/19 04:47:58;;;;;;;8.43;1.73;;;14.10;78.00;;;;;;5152871;27;20074;-63
2022/06/19 04:50:23;;;;;;;11.88;2.03;;;14.10;78.20;;;;;;5151765;27;20390;-63
2022/06/19 04:52:49;;;;;;;11.18;1.67;;;14.20;78.50;;;;;;5150842;27;20027;-64
2022/06/19 04:55:16;;;;;;;9.65;2.00;;;14.20;78.60;;;;;;5145530;27;20103;-63
2022/06/19 04:57:42;;;;;;;7.20;1.60;;;14.40;78.60;;;;;;5134199;27;20049;-63
2022/06/19 05:00:12;;;;;;;7.40;1.50;;;14.40;78.70;;;;;;5151094;27;20031;-63
2022/06/19 05:02:38;;;;;;;9.73;1.63;;;14.60;78.70;;;;;;5152148;27;20463;-63
2022/06/19 05:05:05;;;;;;;6.72;1.40;;;14.70;78.70;;;;;;5138959;27;20113;-63
2022/06/19 05:07:31;;;;;;;4.85;1.20;;;14.80;79.20;;;;;;5151763;27;20450;-63
2022/06/19 05:09:57;;;;;;;7.70;1.83;;;14.90;79.40;;;;;;5120766;27;20031;-63
2022/06/19 05:12:22;;;;;;;9.02;1.40;;;14.90;79.40;;;;;;5153054;27;20054;-63
2022/06/19 05:14:48;;;;;;;8.75;1.60;;;15.00;79.50;;;;;;5148491;27;20037;-63
2022/06/19 05:17:13;;;;;;;8.43;1.67;;;15.10;79.50;;;;;;5151952;27;20486;-64
2022/06/19 05:19:40;;;;;;;5.22;1.50;;;15.20;79.60;;;;;;5148919;27;20038;-64
2022/06/19 05:22:06;;;;;;;9.48;1.70;;;15.20;79.60;;;;;;5151389;27;20045;-64
2022/06/19 05:24:32;;;;;;;7.00;1.60;;;15.20;79.70;;;;;;5152536;27;20030;-64
2022/06/19 05:26:57;;;;;;;9.82;1.48;;;15.20;80.00;;;;;;5144862;27;20060;-63
2022/06/19 05:29:23;;;;;;;7.82;2.15;;;15.20;80.20;;;;;;5146399;27;20095;-64
2022/06/19 05:31:49;;;;;;;6.90;1.92;;;15.20;80.50;;;;;;5142879;27;20480;-64
2022/06/19 05:34:14;;;;;;;11.35;2.05;;;15.10;81.20;;;;;;5152094;27;20466;-64
2022/06/19 05:36:40;;;;;;;12.40;1.88;;;15.10;81.50;;;;;;5147277;27;20126;-64
2022/06/19 05:39:06;;;;;;;8.40;1.52;;;15.20;82.10;;;;;;5150375;27;20077;-64
2022/06/19 05:41:32;;;;;;;14.10;2.38;;;15.20;83.00;;;;;;5149206;27;20034;-64
2022/06/19 05:43:57;;;;;;;13.75;2.20;;;15.30;83.50;;;;;;5152521;27;20035;-64
2022/06/19 05:46:23;;;;;;;15.23;2.45;;;15.50;83.80;;;;;;5154238;27;20126;-64
2022/06/19 05:48:50;;;;;;;16.88;2.97;;;15.50;84.20;;;;;;5149082;27;20512;-64
2022/06/19 05:51:21;;;;;;;13.90;2.58;;;15.60;84.40;;;;;;5134933;27;20557;-65
2022/06/19 05:53:50;;;;;;;7.10;2.00;;;15.50;84.80;;;;;;5133552;27;20050;-64
2022/06/19 05:56:16;;;;;;;11.10;2.15;;;15.40;84.80;;;;;;5133853;27;20043;-65
2022/06/19 05:58:41;;;;;;;11.45;2.00;;;15.30;84.70;;;;;;5118331;27;20502;-64
2022/06/19 06:01:08;;;;;;;10.65;1.77;;;15.30;84.70;;;;;;5128172;27;20043;-64
2022/06/19 06:03:34;;;;;;;9.50;2.38;;;15.30;84.80;;;;;;5134794;27;20078;-64
2022/06/19 06:06:01;;;;;;;9.07;2.00;;;15.30;84.80;;;;;;5131895;27;20059;-64
2022/06/19 06:08:27;;;;;;;14.68;2.30;;;15.30;85.40;;;;;;5132910;27;20475;-64
2022/06/19 06:10:52;;;;;;;11.93;2.00;;;15.40;85.30;;;;;;5132951;27;20035;-64
2022/06/19 06:13:18;;;;;;;12.05;2.20;;;15.40;85.40;;;;;;5132946;27;20126;-64
2022/06/19 06:15:45;;;;;;;10.38;1.73;;;15.50;85.30;;;;;;5130515;27;20053;-64
2022/06/19 06:18:12;;;;;;;10.23;2.10;;;15.50;85.20;;;;;;5130002;27;20075;-64
2022/06/19 06:20:37;;;;;;;12.57;2.22;;;15.50;85.00;;;;;;5115830;28;20070;-64
2022/06/19 06:23:03;;;;;;;9.00;1.90;;;15.50;85.00;;;;;;5116773;27;20570;-64
2022/06/19 06:25:28;;;;;;;13.48;2.38;;;15.50;84.60;;;;;;5135987;27;20509;-64
2022/06/19 06:27:54;;;;;;;10.07;2.00;;;15.50;84.50;;;;;;5130125;27;20047;-64
2022/06/19 06:30:26;;;;;;;11.60;2.00;;;15.50;84.30;;;;;;5123867;27;20031;-64
2022/06/19 06:32:51;;;;;;;8.10;2.00;;;15.40;84.20;;;;;;5128251;27;20129;-64
2022/06/19 06:35:17;;;;;;;15.18;2.83;;;15.40;84.00;;;;;;5126132;27;20122;-64
2022/06/19 06:37:43;;;;;;;13.70;2.67;;;15.30;84.40;;;;;;5112667;27;20134;-64
2022/06/19 06:40:09;;;;;;;8.38;2.45;;;15.30;84.60;;;;;;5134625;27;20046;-64
2022/06/19 06:42:35;;;;;;;11.02;2.35;;;15.40;84.70;;;;;;5133453;27;20487;-64
2022/06/19 06:45:01;;;;;;;15.43;2.60;;;15.20;84.90;;;;;;5129228;27;20042;-64
2022/06/19 06:47:27;;;;;;;9.80;2.80;;;15.20;84.80;;;;;;5126935;27;20863;-64
2022/06/19 06:49:53;;;;;;;13.63;2.10;;;15.20;85.10;;;;;;5119961;27;20059;-64
2022/06/19 06:52:18;;;;;;;13.05;2.33;;;15.10;84.70;;;;;;5123290;27;20050;-64
2022/06/19 06:54:44;;;;;;;13.63;2.28;;;15.10;84.70;;;;;;5142266;27;20050;-64
2022/06/19 06:57:09;;;;;;;12.73;2.15;;;15.20;84.40;;;;;;5130879;27;20051;-63
2022/06/19 06:59:36;;;;;;;7.40;1.60;;;15.20;83.80;;;;;;5149182;27;20035;-64
2022/06/19 07:02:04;;;;;;;15.13;2.38;;;15.20;83.20;;;;;;5150440;27;20039;-65
2022/06/19 07:04:30;;;;;;;13.00;2.00;;;15.30;82.30;;;;;;5153451;27;20502;-63
2022/06/19 07:06:56;;;;;;;7.53;1.65;;;15.30;82.10;;;;;;5136683;27;20045;-64
2022/06/19 07:09:21;;;;;;;7.78;2.10;;;15.30;81.80;;;;;;5147882;27;20043;-63
2022/06/19 07:11:47;;;;;;;8.63;1.98;;;15.30;81.40;;;;;;5131185;27;20043;-63
2022/06/19 07:14:15;;;;;;;10.77;2.10;;;15.30;80.90;;;;;;5152888;27;20981;-64
2022/06/19 07:16:40;;;;;;;11.20;1.92;;;15.20;80.80;;;;;;5149599;27;20042;-63
2022/06/19 07:19:07;;;;;;;13.25;2.50;;;15.30;80.90;;;;;;5148590;27;20398;-63
2022/06/19 07:21:33;;;;;;;9.45;2.08;;;15.30;80.90;;;;;;5151771;27;20039;-64
2022/06/19 07:23:59;;;;;;;11.32;2.10;;;15.40;81.10;;;;;;5148436;27;20121;-64
2022/06/19 07:26:26;;;;;;;9.23;2.17;;;15.40;81.20;;;;;;5149439;27;20470;-64
2022/06/19 07:28:52;;;;;;;13.88;2.50;;;15.40;81.30;;;;;;5145856;27;20034;-64
2022/06/19 07:31:17;;;;;;;9.55;2.00;;;15.60;81.30;;;;;;5127211;27;20474;-64
2022/06/19 07:33:43;;;;;;;9.00;1.75;;;15.60;81.10;;;;;;5149988;27;20034;-64
2022/06/19 07:36:14;;;;;;;11.40;2.25;;;15.60;81.10;;;;;;5149701;27;20038;-64
2022/06/19 07:38:40;;;;;;;13.70;2.60;;;15.70;81.30;;;;;;5147107;27;20091;-64
2022/06/19 07:41:05;;;;;;;9.57;1.83;;;15.70;81.30;;;;;;5143248;27;20035;-63
2022/06/19 07:43:31;;;;;;;12.35;1.60;;;15.70;81.60;;;;;;5133727;27;20035;-63
2022/06/19 07:45:56;;;;;;;8.18;1.98;;;15.70;81.60;;;;;;5147585;27;20034;-63
2022/06/19 07:51:06;;;;;;;8.02;1.60;;;15.80;81.70;;;;;;5152573;27;20046;-63
2022/06/19 07:53:32;;;;;;;14.38;2.17;;;15.70;81.80;;;;;;5149813;27;20040;-64
2022/06/19 07:55:58;;;;;;;12.25;2.55;;;15.70;81.80;;;;;;5145163;27;20038;-63
2022/06/19 07:58:24;;;;;;;15.07;2.75;;;15.70;81.70;;;;;;5151893;27;20043;-64
2022/06/19 08:00:49;;;;;;;9.23;1.85;;;15.70;82.00;;;;;;5147303;27;20127;-64
2022/06/19 08:03:15;;;;;;;10.13;1.50;;;15.60;82.00;;;;;;5150312;27;20060;-63
2022/06/19 08:05:41;;;;;;;10.98;2.38;;;15.60;82.00;;;;;;5152824;27;20063;-63
2022/06/19 08:08:17;;;;;;;11.60;2.58;;;15.50;82.20;;;;;;5151764;27;20435;-63
2022/06/19 08:10:45;;;;;;;10.73;2.10;;;15.50;82.30;;;;;;5150011;27;20039;-64
2022/06/19 08:13:11;;;;;;;10.40;2.33;;;15.50;82.50;;;;;;5153782;27;20034;-63
2022/06/19 08:15:37;;;;;;;9.48;2.28;;;15.40;82.60;;;;;;5149265;27;20053;-63
2022/06/19 08:18:03;;;;;;;9.80;2.00;;;15.40;83.00;;;;;;5149206;27;20034;-63
2022/06/19 08:20:29;;;;;;;8.20;1.73;;;15.30;83.50;;;;;;5149779;27;20521;-63
2022/06/19 08:22:55;;;;;;;15.88;2.08;;;15.40;83.50;;;;;;5151508;27;20037;-63
2022/06/19 08:25:23;;;;;;;7.97;1.65;;;15.40;83.50;;;;;;5150103;27;20110;-63
2022/06/19 08:27:50;;;;;;;9.27;1.75;;;15.40;83.60;;;;;;5143217;27;20027;-63
2022/06/19 08:30:21;;;;;;;9.48;1.83;;;15.40;83.20;;;;;;5141044;27;20039;-63
2022/06/19 08:32:47;;;;;;;6.88;2.15;;;15.50;83.40;;;;;;5151514;27;20457;-63
2022/06/19 08:35:12;;;;;;;9.43;2.17;;;15.50;83.40;;;;;;5150080;27;20070;-63
2022/06/19 08:37:41;;;;;;;11.02;1.98;;;15.60;83.30;;;;;;5149828;27;20030;-63
2022/06/19 08:40:14;;;;;;;10.63;2.15;;;15.70;83.40;;;;;;5151099;27;20037;-63
2022/06/19 08:43:00;;;;;;;11.98;2.70;;;15.80;83.30;;;;;;5153676;27;20039;-63
2022/06/19 08:45:43;;;;;;;9.45;2.00;;;15.80;83.30;;;;;;5127944;27;20045;-63
2022/06/19 08:48:31;;;;;;;11.88;2.35;;;15.90;83.00;;;;;;5151629;27;20041;-63
2022/06/19 08:51:02;;;;;;;11.13;2.47;;;16.00;82.90;;;;;;5149393;27;20042;-63
2022/06/19 08:54:12;;;;;;;11.23;2.13;;;16.10;82.70;;;;;;5145221;27;20142;-63
2022/06/19 08:56:48;;;;;;;10.03;2.07;;;16.20;82.60;;;;;;5125082;27;20507;-63
2022/06/19 08:59:34;;;;;;;13.73;2.13;;;16.20;82.60;;;;;;5146077;27;20857;-63
2022/06/19 09:02:26;;;;;;;11.27;2.25;;;16.20;82.60;;;;;;5128064;27;20043;-63
2022/06/19 09:08:09;;;;;;;10.45;2.08;;;16.20;82.50;;;;;;5152935;27;20527;-63
2022/06/19 09:10:55;;;;;;;9.57;1.85;;;16.20;82.40;;;;;;5142814;27;20031;-63
2022/06/19 09:13:36;;;;;;;8.05;1.92;;;16.20;82.60;;;;;;5144890;27;20067;-63
2022/06/19 09:16:17;;;;;;;8.93;1.85;;;16.20;82.90;;;;;;5146537;27;20067;-63
2022/06/19 09:18:55;;;;;;;10.07;2.20;;;16.20;83.20;;;;;;5132043;27;20234;-63
2022/06/19 09:21:46;;;;;;;11.50;2.03;;;16.20;83.30;;;;;;5149808;27;20050;-63
2022/06/19 09:24:15;;;;;;;5.18;1.65;;;16.30;83.20;;;;;;5108106;27;20070;-63
2022/06/19 09:27:01;;;;;;;11.10;2.47;;;16.30;83.10;;;;;;5157233;27;20470;-63
2022/06/19 09:29:36;;;;;;;8.43;1.98;;;16.30;82.80;;;;;;5149201;27;20031;-63
2022/06/19 09:32:13;;;;;;;11.35;2.30;;;16.40;82.90;;;;;;5146935;27;20031;-64
2022/06/19 09:34:43;;;;;;;10.98;2.58;;;16.50;82.80;;;;;;5149327;27;20038;-64
2022/06/19 09:37:17;;;;;;;9.02;1.67;;;16.50;83.10;;;;;;5147418;27;20482;-64
2022/06/19 09:39:53;;;;;;;12.48;1.98;;;16.40;83.00;;;;;;5146105;27;20042;-64
2022/06/19 09:42:33;;;;;;;8.02;1.90;;;16.40;82.70;;;;;;5148136;27;20042;-64
2022/06/19 09:45:16;;;;;;;9.07;1.98;;;16.50;82.70;;;;;;5131194;27;20493;-64
2022/06/19 09:48:02;;;;;;;8.93;2.60;;;16.50;82.60;;;;;;5149420;27;20088;-64
2022/06/19 09:50:35;;;;;;;13.40;2.50;;;16.50;82.80;;;;;;5153329;27;20034;-64
2022/06/19 09:53:23;;;;;;;8.63;2.20;;;16.60;83.50;;;;;;5150356;27;20411;-64
2022/06/19 09:55:52;;;;;;;8.00;1.95;;;16.60;83.70;;;;;;5152562;27;20046;-65
2022/06/19 09:58:33;;;;;;;9.68;2.58;;;16.60;84.20;;;;;;5149729;27;20410;-64
2022/06/19 10:00:59;;;;;;;;;;;16.60;85.00;;;;;;5149409;27;20482;-64
2022/06/19 10:03:34;;;;;;;7.80;2.72;;;16.50;85.60;;;;;;5149594;27;19919;-64
2022/06/19 10:06:09;;;;;;;11.02;2.42;;;16.30;86.40;;;;;;5149990;27;20034;-65
2022/06/19 10:08:54;;;;;;;7.43;2.33;;;16.20;87.10;;;;;;5137301;27;20091;-65
2022/06/19 10:11:28;;;;;;;9.05;2.67;;;16.20;86.90;;;;;;5145480;27;20045;-64
2022/06/19 10:14:02;;;;;;;7.40;2.13;;;16.30;86.20;;;;;;5125707;27;20478;-64
2022/06/19 10:16:56;;;;;;;9.75;2.58;;;16.40;85.70;;;;;;5143182;27;20035;-64
2022/06/19 10:19:35;;;;;;;8.00;2.00;;;16.50;84.90;;;;;;5121355;27;20137;-64
2022/06/19 10:22:29;;;;;;;10.95;2.03;;;16.60;84.80;;;;;;5145817;27;20117;-64
2022/06/19 10:25:53;;;;;;;6.97;1.95;;;16.70;84.40;;;;;;5149598;27;20046;-65
2022/06/19 10:28:31;;;;;;;6.55;1.63;;;16.80;83.50;;;;;;5099742;27;20088;-64
2022/06/19 10:31:05;;;;;;;6.47;1.83;;;16.90;83.00;;;;;;5150715;27;20042;-64
2022/06/19 10:33:44;;;;;;;6.35;1.75;;;17.00;81.70;;;;;;5120814;27;20031;-64
2022/06/19 10:36:37;;;;;;;9.38;1.40;;;17.10;81.00;;;;;;5144381;27;20516;-64
2022/06/19 10:39:10;;;;;;;6.30;1.33;;;17.10;80.00;;;;;;5143905;27;20435;-64
2022/06/19 10:42:04;;;;;;;7.65;1.52;;;17.10;79.10;;;;;;5137133;27;20049;-64
2022/06/19 10:44:48;;;;;;;9.05;1.35;;;17.30;78.90;;;;;;5151383;27;20533;-64
2022/06/19 10:47:23;;;;;;;7.03;1.70;;;17.50;77.40;;;;;;5153454;27;20031;-64
2022/06/19 10:50:15;;;;;;;4.60;1.52;;;17.90;76.20;;;;;;5154440;27;20718;-64
2022/06/19 10:53:05;;;;;;;5.72;1.38;;;18.10;74.70;;;;;;5142952;27;20035;-64
2022/06/19 10:55:46;;;;;;;6.20;1.30;;;18.30;72.90;;;;;;5146209;27;20043;-64
2022/06/19 10:58:14;;;;;;;;;;;18.30;73.20;;;;;;5153637;27;20596;-64
2022/06/19 11:00:41;;;;;;;6.47;1.13;;;18.20;71.00;;;;;;5149716;27;20607;-64
2022/06/19 11:06:20;;;;;;;4.95;1.38;;;18.20;71.40;;;;;;5149439;27;20039;-64
2022/06/19 11:08:53;;;;;;;4.20;1.20;;;18.10;72.50;;;;;;5152465;27;20042;-64
2022/06/19 11:11:20;;;;;;;7.18;1.60;;;18.10;72.30;;;;;;5151027;27;20039;-64
2022/06/19 11:14:03;;;;;;;6.50;1.48;;;18.10;72.20;;;;;;5146671;27;20031;-65
2022/06/19 11:16:31;;;;;;;5.35;1.20;;;18.20;71.00;;;;;;5145892;27;20150;-64
2022/06/19 11:18:58;;;;;;;3.67;1.00;;;18.20;71.90;;;;;;5153752;27;20046;-64
2022/06/19 11:21:34;;;;;;;5.55;1.20;;;18.20;71.90;;;;;;5154163;27;20138;-64
2022/06/19 11:24:03;;;;;;;6.30;1.25;;;18.10;71.70;;;;;;5145815;27;20109;-64
2022/06/19 11:26:39;;;;;;;6.20;1.40;;;18.00;72.50;;;;;;5155279;27;20066;-64
2022/06/19 11:29:20;;;;;;;6.70;1.52;;;18.00;71.30;;;;;;5131099;27;20070;-64
2022/06/19 11:32:04;;;;;;;;;;;17.90;71.20;;;;;;5154803;27;20042;-64
2022/06/19 11:34:51;;;;;;;4.68;1.05;;;17.80;70.70;;;;;;5150187;27;19915;-64
2022/06/19 11:37:37;;;;;;;5.07;1.15;;;17.80;72.20;;;;;;5153835;27;20035;-64
2022/06/19 11:40:05;;;;;;;4.05;0.98;;;17.80;71.10;;;;;;5149571;27;20049;-64
2022/06/19 11:42:36;;;;;;;3.22;1.10;;;17.60;71.90;;;;;;5148712;27;20069;-64
2022/06/19 11:45:19;;;;;;;2.85;0.80;;;17.60;72.00;;;;;;5147923;27;20042;-64
2022/06/19 11:47:57;;;;;;;4.50;0.85;;;17.50;71.00;;;;;;5154985;27;20130;-64
2022/06/19 11:50:52;;;;;;;6.20;1.15;;;17.40;71.80;;;;;;5137306;27;20046;-64
2022/06/19 11:53:30;;;;;;;5.00;0.80;;;17.40;71.00;;;;;;5145693;27;20427;-64
2022/06/19 11:56:35;;;;;;;2.00;0.70;;;17.60;71.30;;;;;;5153793;27;20126;-64
2022/06/19 11:59:04;;;;;;;4.60;0.80;;;17.70;70.50;;;;;;5052542;28;20036;-64
2022/06/19 12:01:42;;;;;;;4.30;0.90;;;17.80;70.80;;;;;;5060877;28;20037;-64
2022/06/19 12:04:30;;;;;;;4.78;1.15;;;17.90;70.30;;;;;;5106116;27;20045;-63
2022/06/19 12:07:12;;;;;;;3.05;1.48;;;18.00;69.60;;;;;;5145373;27;20038;-63
2022/06/19 12:09:53;;;;;;;2.55;0.50;;;18.00;69.70;;;;;;5124510;27;20039;-64
2022/06/19 12:12:21;;;;;;;4.13;0.80;;;18.10;69.10;;;;;;5131216;27;20398;-63
2022/06/19 12:14:46;;;;;;;5.30;0.80;;;18.00;69.60;;;;;;5145150;27;20035;-63
2022/06/19 12:17:16;;;;;;;4.82;0.80;;;18.00;69.60;;;;;;5152644;27;20134;-63
2022/06/19 12:19:55;;;;;;;5.97;0.80;;;17.90;69.80;;;;;;5151590;27;21929;-63
2022/06/19 12:22:48;;;;;;;5.13;0.80;;;18.10;69.60;;;;;;5135122;27;20050;-63
2022/06/19 12:25:17;;;;;;;4.18;0.85;;;18.10;69.20;;;;;;5140407;27;20053;-63
2022/06/19 12:27:55;;;;;;;2.88;0.68;;;18.10;69.80;;;;;;5133599;27;20031;-64
2022/06/19 12:30:31;;;;;;;2.47;0.88;;;18.10;69.50;;;;;;5151512;27;20064;-64
2022/06/19 12:33:00;;;;;;;5.25;0.80;;;18.10;69.60;;;;;;5144295;27;20039;-63
2022/06/19 12:35:39;;;;;;;4.32;0.80;;;18.20;69.50;;;;;;5151596;27;20031;-63
2022/06/19 12:38:13;;;;;;;2.60;0.80;;;18.60;68.80;;;;;;5154021;27;20134;-63
2022/06/19 12:40:58;;;;;;;2.55;0.57;;;19.20;67.60;;;;;;5151908;27;20038;-63
2022/06/19 12:43:32;;;;;;;2.28;0.70;;;20.30;65.80;;;;;;5152197;27;20405;-63
2022/06/19 12:45:58;;;;;;;2.33;0.75;;;20.90;63.40;;;;;;5147930;27;20043;-63
2022/06/19 12:48:44;;;;;;;3.78;0.80;;;20.70;63.70;;;;;;5151858;27;20150;-64
2022/06/19 12:51:43;;;;;;;1.98;0.40;;;20.60;63.50;;;;;;5151092;27;20043;-63
2022/06/19 12:54:54;;;;;;;2.25;0.60;;;20.50;63.90;;;;;;5131038;27;20062;-64
2022/06/19 12:57:34;;;;;;;1.67;0.40;;;20.50;63.50;;;;;;5077903;27;20159;-63
2022/06/19 13:00:21;;;;;;;1.58;0.82;;;20.30;64.30;;;;;;5149254;27;20027;-63
2022/06/19 13:03:08;;;;;;;1.85;0.55;;;20.00;64.90;;;;;;5147752;27;20075;-63
2022/06/19 13:05:48;;;;;;;2.08;0.60;;;19.60;65.00;;;;;;5152618;27;20044;-64
2022/06/19 13:08:32;;;;;;;1.95;0.60;;;19.30;66.20;;;;;;5116809;27;20050;-63
2022/06/19 13:11:23;;;;;;;1.35;0.50;;;18.90;66.90;;;;;;5140364;27;20030;-63
2022/06/19 13:13:57;;;;;;;;;;;18.60;68.40;;;;;;5131906;27;20027;-63
2022/06/19 13:16:38;;;;;;;4.93;0.80;;;18.30;69.20;;;;;;5148650;27;20351;-63